Time;durP1;ratioP1;P1;durP2;ratioP2;P2;SDS_P1;SDS_P2;PMS_P1;PMS_P2;Temp;Humidity;BMP_temperature;BMP_pressure;BME280_temperature;BME280_humidity;BME280_pressure;Samples;Min_cycle;Max_cycle;Signal;HPM_P1;HPM_P2
2023/01/14 00:01:44;;;;;;;;;6.50;4.00;;;;;10.24;66.62;101511.75;4977813;28;45455;-72
2023/01/14 00:04:17;;;;;;;;;2.00;2.00;;;;;10.25;66.60;101500.41;4977530;28;45489;-73
2023/01/14 00:06:42;;;;;;;;;2.50;2.50;;;;;10.22;67.25;101497.75;4958134;28;46227;-70
2023/01/14 00:09:12;;;;;;;;;4.00;3.25;;;;;10.21;67.34;101498.63;4972844;28;45374;-72
2023/01/14 00:11:47;;;;;;;;;8.25;4.00;;;;;10.05;67.96;101477.44;4973124;28;45848;-72
2023/01/14 00:14:14;;;;;;;;;6.25;2.75;;;;;10.04;68.35;101478.31;4975596;28;45454;-73
2023/01/14 00:16:43;;;;;;;;;9.75;3.25;;;;;10.14;68.71;101503.75;4972565;28;45405;-73
2023/01/14 00:19:13;;;;;;;;;3.25;2.75;;;;;10.10;68.75;101501.94;4975038;28;45499;-72
2023/01/14 00:21:46;;;;;;;;;6.25;3.25;;;;;9.95;69.66;101473.78;4983322;28;45497;-72
2023/01/14 00:24:13;;;;;;;;;4.00;2.00;;;;;9.79;70.44;101465.66;5051081;28;45504;-72
2023/01/14 00:26:40;;;;;;;;;4.75;2.75;;;;;9.91;70.49;101476.31;4968175;28;46183;-71
2023/01/14 00:29:09;;;;;;;;;5.25;3.00;;;;;9.92;71.34;101478.97;4970361;28;45513;-74
2023/01/14 00:31:34;;;;;;;;;2.25;2.25;;;;;9.84;71.89;101448.28;4975293;28;45576;-73
2023/01/14 00:34:00;;;;;;;;;6.25;4.00;;;;;9.81;72.84;101446.50;4975923;28;45914;-73
2023/01/14 00:36:27;;;;;;;;;3.25;2.00;;;;;9.74;72.57;101426.34;4958320;28;47497;-74
2023/01/14 00:38:54;;;;;;;;;5.75;3.00;;;;;9.73;73.35;101421.97;4960169;28;45323;-74
2023/01/14 00:41:23;;;;;;;;;5.75;3.75;;;;;9.90;73.79;101446.66;4971848;28;45531;-72
2023/01/14 00:43:59;;;;;;;;;1.50;1.50;;;;;9.64;73.60;101388.69;4970611;28;45585;-74
2023/01/14 00:46:30;;;;;;;;;2.50;2.50;;;;;9.87;74.78;101438.78;4962970;28;46453;-74
2023/01/14 00:48:58;;;;;;;;;6.25;2.25;;;;;9.43;75.38;101362.19;4956855;28;45796;-73
2023/01/14 00:51:25;;;;;;;;;4.00;3.00;;;;;9.73;76.86;101441.16;4964681;28;45930;-72
2023/01/14 00:53:51;;;;;;;;;3.00;3.00;;;;;9.73;77.09;101433.31;4972443;28;45537;-72
2023/01/14 00:56:18;;;;;;;;;4.50;3.00;;;;;9.68;78.05;101429.75;4974040;28;45485;-73
2023/01/14 00:58:44;;;;;;;;;2.00;2.00;;;;;9.65;78.29;101420.94;4975342;28;45440;-73
2023/01/14 01:01:13;;;;;;;;;6.00;3.00;;;;;9.62;78.08;101408.72;4955812;28;45531;-72
2023/01/14 01:03:45;;;;;;;;;4.00;2.00;;;;;9.54;78.25;101392.91;4975430;28;45429;-73
2023/01/14 01:06:19;;;;;;;;;3.50;2.00;;;;;9.68;78.12;101403.59;4972249;28;45433;-73
2023/01/14 01:08:44;;;;;;;;;3.75;3.25;;;;;9.75;78.86;101410.69;4957493;28;45869;-72
2023/01/14 01:11:12;;;;;;;;;8.00;3.25;;;;;9.72;78.44;101412.34;4973680;28;45411;-72
2023/01/14 01:13:41;;;;;;;;;7.00;3.75;;;;;9.64;79.28;101399.16;4972819;28;46061;-72
2023/01/14 01:16:13;;;;;;;;;5.00;3.25;;;;;9.43;79.58;101351.72;4954558;28;47733;-73
2023/01/14 01:18:40;;;;;;;;;3.75;3.00;;;;;9.31;79.54;101327.13;4959935;28;45421;-72
2023/01/14 01:21:15;;;;;;;;;8.50;6.00;;;;;9.60;80.12;101380.78;4958506;28;45447;-72
2023/01/14 01:23:59;;;;;;;;;8.25;4.75;;;;;9.34;79.81;101329.78;4963910;28;45510;-73
2023/01/14 01:26:26;;;;;;;;;4.75;4.00;;;;;9.58;80.41;101370.28;4954912;28;48225;-72
2023/01/14 01:29:10;;;;;;;;;;;;;;;;;;;;;
2023/01/14 01:31:36;;;;;;;;;4.25;4.00;;;;;9.47;80.78;101353.56;4971037;28;68753;-73
2023/01/14 01:34:01;;;;;;;;;5.00;5.00;;;;;9.32;81.08;101331.53;4971865;28;45505;-72
2023/01/14 01:36:28;;;;;;;;;6.50;2.50;;;;;9.58;81.30;101377.25;4958738;28;46316;-73
2023/01/14 01:39:49;;;;;;;;;4.00;4.00;;;;;9.63;80.80;101373.84;4972583;28;45466;-73
2023/01/14 01:42:16;;;;;;;;;6.50;5.50;;;;;9.62;81.43;101366.88;4969571;28;45410;-75
2023/01/14 01:45:35;;;;;;;;;6.00;3.00;;;;;9.61;81.80;101356.38;4971997;28;45569;-73
2023/01/14 01:48:37;;;;;;;;;4.50;3.00;;;;;9.35;81.57;101315.00;4972003;28;46327;-73
2023/01/14 01:51:09;;;;;;;;;6.00;3.25;;;;;9.38;81.63;101317.66;4956630;28;45584;-72
2023/01/14 01:53:41;;;;;;;;;3.00;3.00;;;;;9.53;81.66;101335.31;4971709;28;45587;-75
2023/01/14 01:56:36;;;;;;;;;5.00;4.00;;;;;9.79;81.59;101367.13;4972333;28;45875;-74
2023/01/14 01:59:11;;;;;;;;;2.00;2.00;;;;;9.82;82.57;101361.06;4971919;28;46206;-73
2023/01/14 02:02:07;;;;;;;;;2.50;2.50;;;;;9.83;82.54;101357.59;5055513;28;46009;-73
2023/01/14 02:04:32;;;;;;;;;3.00;2.25;;;;;9.72;83.03;101341.72;4971453;28;45406;-74
2023/01/14 02:06:58;;;;;;;;;4.75;2.50;;;;;9.56;83.03;101309.22;4972097;28;45697;-73
2023/01/14 02:09:27;;;;;;;;;2.00;2.00;;;;;9.76;83.60;101349.66;4953500;28;46174;-74
2023/01/14 02:12:03;;;;;;;;;3.50;3.25;;;;;9.71;83.50;101334.75;4954274;28;45484;-74
2023/01/14 02:14:44;;;;;;;;;2.00;1.75;;;;;9.77;84.14;101348.81;4971719;28;45509;-73
2023/01/14 02:17:22;;;;;;;;;3.25;3.00;;;;;9.80;84.20;101333.97;4971952;28;45464;-74
2023/01/14 02:20:11;;;;;;;;;3.25;3.25;;;;;9.73;84.66;101307.75;4971126;28;45520;-74
2023/01/14 02:23:04;;;;;;;;;4.00;3.00;;;;;9.77;84.93;101317.41;4960941;28;45463;-74
2023/01/14 02:25:51;;;;;;;;;2.50;2.00;;;;;9.84;84.67;101313.13;4959221;28;45754;-74
2023/01/14 02:28:45;;;;;;;;;4.00;3.00;;;;;9.89;84.52;101303.59;4974165;28;45586;-75
2023/01/14 02:31:53;;;;;;;;;8.25;2.25;;;;;9.97;84.12;101298.50;4974904;28;45441;-73
2023/01/14 02:34:43;;;;;;;;;2.00;2.00;;;;;9.93;83.96;101283.59;4980997;28;45507;-74
2023/01/14 02:37:26;;;;;;;;;1.00;1.00;;;;;9.44;84.23;101188.75;4969378;28;45505;-74
2023/01/14 02:39:54;;;;;;;;;2.00;2.00;;;;;10.08;83.63;101294.25;4970870;28;45835;-74
2023/01/14 02:45:14;;;;;;;;;1.75;1.75;;;;;10.12;83.26;101275.13;4970974;28;45900;-76
2023/01/14 02:47:42;;;;;;;;;3.50;1.00;;;;;10.28;82.82;101299.78;4971242;28;45565;-74
2023/01/14 02:50:11;;;;;;;;;2.00;2.00;;;;;10.35;82.74;101295.50;4971640;28;45497;-73
2023/01/14 02:52:37;;;;;;;;;1.25;1.00;;;;;10.27;82.94;101269.19;4970509;28;46095;-74
2023/01/14 02:55:04;;;;;;;;;3.00;1.25;;;;;10.42;82.53;101289.47;4953116;28;45454;-75
2023/01/14 02:58:00;;;;;;;;;3.00;1.75;;;;;10.49;81.68;101285.19;4970643;28;45535;-74
2023/01/14 03:00:50;;;;;;;;;3.00;1.50;;;;;10.54;81.70;101278.28;4953782;28;45467;-73
2023/01/14 03:03:18;;;;;;;;;1.00;1.00;;;;;10.56;81.53;101271.31;4971147;28;46683;-74
2023/01/14 03:05:59;;;;;;;;;1.00;1.00;;;;;10.59;81.24;101266.97;4953649;28;45749;-75
2023/01/14 03:08:58;;;;;;;;;1.00;0.75;;;;;10.57;81.05;101265.19;4957650;28;45370;-74
2023/01/14 03:11:36;;;;;;;;;3.75;1.75;;;;;10.63;80.56;101275.75;4970413;28;45460;-74
2023/01/14 03:14:11;;;;;;;;;2.25;2.00;;;;;10.65;80.75;101260.03;5054905;28;45731;-74
2023/01/14 03:16:51;;;;;;;;;2.00;0.00;;;;;10.53;80.08;101229.34;5053809;27;45849;-73
2023/01/14 03:19:37;;;;;;;;;1.00;1.00;;;;;10.54;80.04;101218.03;4970670;28;45850;-72
2023/01/14 03:22:06;;;;;;;;;0.00;0.00;;;;;10.69;79.67;101246.09;4966590;28;45782;-73
2023/01/14 03:24:43;;;;;;;;;3.67;0.33;;;;;10.67;79.59;101232.97;4970487;28;45953;-73
2023/01/14 03:27:19;;;;;;;;;3.67;0.67;;;;;10.67;79.85;101225.13;4957755;28;45368;-73
2023/01/14 03:29:48;;;;;;;;;1.33;1.00;;;;;10.64;79.36;101224.22;4974724;28;45393;-73
2023/01/14 03:32:20;;;;;;;;;0.00;0.00;;;;;10.69;79.00;101218.16;4966705;28;45484;-73
2023/01/14 03:34:54;;;;;;;;;1.00;0.67;;;;;10.70;78.48;101205.94;4970307;28;46426;-73
2023/01/14 03:37:24;;;;;;;;;2.33;0.33;;;;;10.66;78.56;101189.31;5053816;28;45488;-73
2023/01/14 03:39:54;;;;;;;;;3.00;0.33;;;;;10.67;79.18;101190.19;4957340;28;45538;-74
2023/01/14 03:42:23;;;;;;;;;3.00;1.00;;;;;10.65;79.06;101168.34;4958983;28;45505;-74
2023/01/14 03:44:54;;;;;;;;;2.00;1.00;;;;;10.60;79.03;101169.16;4975691;28;45536;-73
2023/01/14 03:47:22;;;;;;;;;5.33;1.00;;;;;10.60;78.80;101171.78;4971832;28;45863;-73
2023/01/14 03:49:52;;;;;;;;;1.00;0.67;;;;;10.48;79.05;101150.72;4955930;28;45554;-74
2023/01/14 03:52:32;;;;;;;;;3.00;1.00;;;;;10.64;78.94;101169.22;4973490;28;45821;-74
2023/01/14 03:55:04;;;;;;;;;3.33;1.00;;;;;10.63;78.62;101151.72;4972963;28;45541;-74
2023/01/14 03:57:41;;;;;;;;;3.67;1.33;;;;;10.50;78.28;101129.81;4972805;28;45461;-74
2023/01/14 04:00:37;;;;;;;;;2.00;1.67;;;;;10.63;78.58;101138.63;4971640;28;45664;-73
2023/01/14 04:03:08;;;;;;;;;1.67;1.00;;;;;10.64;78.30;101146.50;4977782;28;45835;-74
2023/01/14 04:05:35;;;;;;;;;2.00;0.33;;;;;10.50;78.29;101114.09;5061807;27;46691;-74
2023/01/14 04:08:02;;;;;;;;;0.67;0.00;;;;;10.64;77.97;101125.56;4977378;28;45663;-75
2023/01/14 04:10:28;;;;;;;;;3.67;2.00;;;;;10.26;78.06;101062.38;4976186;28;45404;-75
2023/01/14 04:15:44;;;;;;;;;1.33;1.33;;;;;10.61;78.16;101109.81;4972648;28;45786;-72
2023/01/14 04:18:09;;;;;;;;;6.67;0.67;;;;;10.17;78.20;101031.75;4972355;28;45590;-73
2023/01/14 04:20:35;;;;;;;;;1.50;1.50;;;;;10.69;77.79;101086.31;4955520;28;45443;-73
2023/01/14 04:23:00;;;;;;;;;3.00;1.00;;;;;10.31;77.92;101010.94;4980044;27;45422;-74
2023/01/14 04:25:26;;;;;;;;;5.00;2.00;;;;;10.71;77.42;101081.94;4972976;28;46147;-73
2023/01/14 04:27:52;;;;;;;;;5.33;2.00;;;;;10.66;77.66;101060.97;4972361;28;45647;-74
2023/01/14 04:30:19;;;;;;;;;3.67;2.00;;;;;10.68;77.57;101054.00;4974136;28;45492;-74
2023/01/14 04:32:46;;;;;;;;;2.67;2.67;;;;;10.68;77.89;101063.56;4977263;28;45545;-73
2023/01/14 04:35:15;;;;;;;;;3.50;2.25;;;;;10.55;77.74;101039.03;4975911;28;45440;-73
2023/01/14 04:37:43;;;;;;;;;5.00;1.25;;;;;10.72;77.86;101045.25;4976437;28;45510;-74
2023/01/14 04:40:12;;;;;;;;;5.75;2.75;;;;;10.43;77.80;100997.94;4976386;28;45564;-74
2023/01/14 04:42:39;;;;;;;;;3.25;1.00;;;;;10.46;77.68;101013.66;4976364;28;45335;-73
2023/01/14 04:45:05;;;;;;;;;2.33;0.67;;;;;10.75;77.32;101054.91;4972381;28;45660;-74
2023/01/14 04:47:31;;;;;;;;;4.00;1.25;;;;;10.15;77.42;100960.19;4954374;28;46182;-74
2023/01/14 04:49:57;;;;;;;;;5.00;1.25;;;;;10.47;77.23;101017.19;4971865;28;45478;-73
2023/01/14 04:52:27;;;;;;;;;2.50;2.00;;;;;10.63;77.78;101036.47;4972068;28;45953;-74
2023/01/14 04:54:52;;;;;;;;;4.00;2.50;;;;;10.70;77.74;101039.16;4971274;28;47636;-74
2023/01/14 04:57:18;;;;;;;;;4.50;2.00;;;;;10.72;77.62;101024.31;4972487;28;45386;-74
2023/01/14 04:59:44;;;;;;;;;2.50;1.00;;;;;10.37;77.64;100967.38;4974347;28;45549;-76
2023/01/14 05:02:13;;;;;;;;;2.00;2.00;;;;;10.61;77.02;100995.44;4977019;28;45558;-74
2023/01/14 05:04:39;;;;;;;;;2.75;1.75;;;;;10.64;77.54;100998.94;4973182;28;45509;-74
2023/01/14 05:07:05;;;;;;;;;3.25;2.00;;;;;10.66;77.29;101016.44;4972199;28;45537;-74
2023/01/14 05:09:30;;;;;;;;;7.00;2.75;;;;;10.34;77.35;100955.97;4971771;28;45343;-74
2023/01/14 05:11:57;;;;;;;;;3.25;1.25;;;;;10.40;77.28;100969.13;4972355;28;45331;-74
2023/01/14 05:14:22;;;;;;;;;4.00;1.00;;;;;10.37;77.22;100958.63;4972016;28;45487;-73
2023/01/14 05:16:48;;;;;;;;;1.00;1.00;;;;;10.60;76.92;100990.19;4974832;28;45394;-73
2023/01/14 05:19:13;;;;;;;;;6.50;1.25;;;;;10.48;77.14;100985.75;4958841;28;45403;-73
2023/01/14 05:21:39;;;;;;;;;0.00;0.00;;;;;10.34;77.31;100962.09;4974090;28;45322;-74
2023/01/14 05:24:05;;;;;;;;;2.25;2.00;;;;;10.48;76.70;100975.28;4973014;28;45501;-73
2023/01/14 05:26:31;;;;;;;;;1.00;1.00;;;;;10.65;76.35;101011.16;4974664;28;45460;-73
2023/01/14 05:28:56;;;;;;;;;4.75;1.25;;;;;10.29;76.42;100927.16;4972258;28;45462;-74
2023/01/14 05:31:22;;;;;;;;;2.75;1.00;;;;;10.26;76.21;100928.84;4972756;28;45535;-74
2023/01/14 05:33:47;;;;;;;;;2.25;1.00;;;;;10.66;76.29;100979.75;4972239;28;46246;-74
2023/01/14 05:36:13;;;;;;;;;1.00;1.00;;;;;10.70;75.79;100988.50;4975092;28;45442;-73
2023/01/14 05:38:42;;;;;;;;;3.00;3.00;;;;;10.57;75.99;100964.84;4972292;28;45510;-71
2023/01/14 05:41:13;;;;;;;;;1.75;1.00;;;;;10.56;75.67;100952.63;4972338;28;45525;-72
2023/01/14 05:46:22;;;;;;;;;2.00;1.75;;;;;10.66;75.94;100944.84;4972802;28;45564;-74
2023/01/14 05:48:48;;;;;;;;;1.75;1.00;;;;;10.69;75.65;100952.69;4971615;28;45474;-73
2023/01/14 05:51:14;;;;;;;;;2.75;1.00;;;;;10.67;75.43;100930.84;4976425;28;45593;-72
2023/01/14 05:53:43;;;;;;;;;3.00;1.75;;;;;10.66;75.41;100943.09;4974253;28;45587;-73
2023/01/14 05:56:13;;;;;;;;;3.00;0.33;;;;;10.48;75.39;100901.94;4971967;28;45493;-72
2023/01/14 05:58:39;;;;;;;;;1.50;1.50;;;;;10.63;75.39;100926.47;4954576;28;45471;-74
2023/01/14 06:06:48;;;;;;;;;4.75;1.25;;;;;10.44;74.90;100863.53;4972054;28;45393;-73
2023/01/14 06:09:15;;;;;;;;;1.00;1.00;;;;;10.35;75.37;100863.50;4971668;28;45951;-73
2023/01/14 06:11:45;;;;;;;;;1.00;0.50;;;;;10.37;74.88;100862.63;4970073;28;45757;-72
2023/01/14 06:14:11;;;;;;;;;2.75;1.50;;;;;10.69;74.90;100905.53;4971831;28;45686;-73
2023/01/14 06:16:40;;;;;;;;;0.33;0.33;;;;;10.47;74.82;100871.41;4975861;28;45407;-73
2023/01/14 06:19:13;;;;;;;;;2.00;1.00;;;;;10.56;74.12;100887.16;4957891;28;45434;-73
2023/01/14 06:21:40;;;;;;;;;2.50;0.50;;;;;10.66;74.52;100897.69;4998886;28;45399;-74
2023/01/14 06:24:07;;;;;;;;;5.33;1.00;;;;;10.64;74.17;100884.56;4957665;28;45567;-72
2023/01/14 06:26:34;;;;;;;;;3.75;2.00;;;;;10.62;74.63;100902.00;4992722;28;45461;-73
2023/01/14 06:29:06;;;;;;;;;2.25;0.25;;;;;10.64;74.56;100879.31;4993059;28;45537;-73
2023/01/14 06:31:33;;;;;;;;;9.50;1.50;;;;;10.60;74.44;100880.19;4987448;28;45726;-73
2023/01/14 06:34:01;;;;;;;;;3.00;1.00;;;;;10.48;74.46;100860.03;4973141;28;45692;-76
2023/01/14 06:36:28;;;;;;;;;1.00;0.25;;;;;10.57;75.03;100874.94;4976553;28;45539;-74
2023/01/14 06:38:57;;;;;;;;;5.00;2.25;;;;;10.48;75.04;100860.03;4975466;28;45668;-74
2023/01/14 06:41:32;;;;;;;;;4.25;1.00;;;;;10.55;75.40;100864.44;4971095;28;45962;-75
2023/01/14 06:43:59;;;;;;;;;1.50;1.00;;;;;10.56;75.35;100853.13;4970930;28;45527;-75
2023/01/14 06:46:25;;;;;;;;;3.75;1.00;;;;;10.34;75.33;100812.84;4975793;28;45492;-72
2023/01/14 06:48:50;;;;;;;;;3.25;1.00;;;;;10.37;75.23;100827.72;4977760;28;45507;-72
2023/01/14 06:51:18;;;;;;;;;5.25;1.50;;;;;10.36;75.61;100818.09;4953985;28;45538;-72
2023/01/14 06:53:44;;;;;;;;;5.25;1.75;;;;;10.54;75.41;100847.00;4973459;28;45735;-73
2023/01/14 06:56:17;;;;;;;;;6.75;1.50;;;;;10.33;76.25;100823.34;4979911;28;45383;-73
2023/01/14 06:58:46;;;;;;;;;4.33;1.67;;;;;10.25;75.83;100796.19;4981362;28;45415;-73
2023/01/14 07:01:12;;;;;;;;;3.00;1.50;;;;;10.44;75.68;100816.41;4971854;28;45815;-73
2023/01/14 07:03:39;;;;;;;;;2.25;1.00;;;;;10.34;75.92;100793.66;4969476;28;45562;-73
2023/01/14 07:06:07;;;;;;;;;3.00;1.25;;;;;10.20;75.97;100780.47;4970188;28;45394;-74
2023/01/14 07:08:33;;;;;;;;;4.25;2.00;;;;;10.45;75.84;100809.41;4979102;28;45515;-73
2023/01/14 07:10:59;;;;;;;;;5.50;1.00;;;;;10.53;75.91;100811.19;4974936;28;45985;-73
2023/01/14 07:13:25;;;;;;;;;2.75;1.75;;;;;10.23;76.23;100761.28;4954017;28;45776;-73
2023/01/14 07:15:51;;;;;;;;;3.25;2.00;;;;;10.50;76.64;100811.16;4974308;28;45863;-72
2023/01/14 07:18:17;;;;;;;;;5.00;2.33;;;;;10.34;76.00;100773.56;4974688;28;45490;-72
2023/01/14 07:20:43;;;;;;;;;2.00;1.00;;;;;10.45;76.20;100778.00;4974768;28;45566;-72
2023/01/14 07:23:09;;;;;;;;;4.25;1.00;;;;;10.45;76.02;100784.09;5012358;28;47819;-73
2023/01/14 07:25:36;;;;;;;;;1.00;1.00;;;;;10.58;76.03;100804.22;4976981;28;45509;-72
2023/01/14 07:28:03;;;;;;;;;3.00;1.00;;;;;10.59;75.98;100790.25;4976455;28;45838;-72
2023/01/14 07:30:28;;;;;;;;;2.25;1.00;;;;;10.58;76.46;100800.72;4975082;28;45772;-72
2023/01/14 07:33:00;;;;;;;;;2.00;1.00;;;;;10.57;76.51;100783.25;4975617;28;45392;-74
2023/01/14 07:35:28;;;;;;;;;3.25;0.75;;;;;10.48;76.53;100767.53;4974673;28;45441;-73
2023/01/14 07:37:59;;;;;;;;;3.00;1.25;;;;;10.56;76.54;100758.81;4977215;28;45359;-74
2023/01/14 07:40:25;;;;;;;;;5.75;2.00;;;;;10.56;76.98;100774.53;4976512;28;45691;-71
2023/01/14 07:42:56;;;;;;;;;3.00;1.50;;;;;10.46;76.76;100741.31;4973468;28;46464;-73
2023/01/14 07:45:22;;;;;;;;;2.50;2.00;;;;;10.57;76.89;100763.19;4965678;28;45534;-74
2023/01/14 07:47:47;;;;;;;;;1.25;0.75;;;;;10.50;76.55;100753.56;4977581;28;45466;-72
2023/01/14 07:50:13;;;;;;;;;2.75;1.00;;;;;10.53;76.84;100753.56;4978516;28;45856;-72
2023/01/14 07:52:43;;;;;;;;;4.25;1.50;;;;;10.42;76.58;100741.31;4972111;28;46017;-74
2023/01/14 07:55:12;;;;;;;;;3.25;2.00;;;;;10.51;76.57;100743.97;4981618;28;45840;-73
2023/01/14 07:57:38;;;;;;;;;1.00;1.00;;;;;10.56;76.79;100742.25;4978067;28;45868;-72
2023/01/14 08:00:04;;;;;;;;;1.50;1.00;;;;;10.52;76.61;100717.78;4962480;28;45727;-72
2023/01/14 08:02:30;;;;;;;;;2.50;1.00;;;;;10.24;77.05;100684.53;4979372;28;46088;-73
2023/01/14 08:04:56;;;;;;;;;4.00;1.50;;;;;10.47;76.64;100726.50;4980838;28;45484;-73
2023/01/14 08:07:22;;;;;;;;;1.25;1.00;;;;;10.52;77.50;100740.47;4989981;28;45430;-74
2023/01/14 08:09:47;;;;;;;;;2.00;1.00;;;;;10.53;77.97;100730.00;4988201;28;45353;-73
2023/01/14 08:12:13;;;;;;;;;3.00;1.00;;;;;10.34;77.79;100696.78;4985859;28;45354;-74
2023/01/14 08:14:39;;;;;;;;;2.00;1.00;;;;;10.17;77.99;100668.78;4989219;28;45474;-73
2023/01/14 08:17:05;;;;;;;;;1.25;1.25;;;;;10.47;78.35;100689.84;4991172;28;45516;-74
2023/01/14 08:19:30;;;;;;;;;4.75;2.25;;;;;10.58;78.84;100714.28;4987763;28;45335;-72
2023/01/14 08:21:57;;;;;;;;;1.33;1.33;;;;;10.51;79.65;100708.19;5013108;28;46143;-73
2023/01/14 08:24:22;;;;;;;;;2.67;1.00;;;;;10.37;83.28;100686.34;5009803;28;45820;-75
2023/01/14 08:26:48;;;;;;;;;1.00;1.00;;;;;10.40;79.51;100681.09;4990859;28;45576;-73
2023/01/14 08:29:17;;;;;;;;;1.75;1.00;;;;;10.04;80.29;100622.53;4991296;28;45512;-74
2023/01/14 08:31:43;;;;;;;;;0.75;0.75;;;;;10.13;79.71;100642.59;4990120;28;45871;-75
2023/01/14 08:34:09;;;;;;;;;3.75;1.00;;;;;10.50;79.91;100697.69;4993879;28;45584;-74
2023/01/14 08:36:35;;;;;;;;;2.75;1.00;;;;;10.35;79.97;100661.91;4989564;28;45672;-73
2023/01/14 08:39:00;;;;;;;;;1.00;1.00;;;;;10.47;79.94;100663.66;4992603;28;45450;-72
2023/01/14 08:41:29;;;;;;;;;2.75;1.25;;;;;10.36;79.90;100643.56;4980960;28;46715;-73
2023/01/14 08:43:56;;;;;;;;;5.50;2.00;;;;;10.17;80.69;100619.06;4973802;28;45445;-73
2023/01/14 08:46:22;;;;;;;;;3.50;2.50;;;;;10.56;80.45;100668.91;4977233;28;45326;-73
2023/01/14 08:48:48;;;;;;;;;1.25;1.25;;;;;10.51;80.33;100678.50;4975499;28;45324;-73
2023/01/14 08:51:14;;;;;;;;;5.75;1.75;;;;;10.55;80.26;100660.16;4973175;28;45488;-74
2023/01/14 08:53:43;;;;;;;;;6.75;1.00;;;;;10.45;80.65;100636.59;4972531;28;45478;-73
2023/01/14 08:56:16;;;;;;;;;4.75;1.50;;;;;10.66;80.58;100667.19;4972157;28;45402;-75
2023/01/14 08:58:46;;;;;;;;;3.00;2.00;;;;;10.58;80.73;100673.28;4958379;28;45710;-73
2023/01/14 09:01:13;;;;;;;;;3.00;2.00;;;;;10.66;80.63;100665.41;4972676;28;45642;-74
2023/01/14 09:03:43;;;;;;;;;2.75;0.25;;;;;10.53;80.23;100643.56;5060721;28;45769;-73
2023/01/14 09:06:14;;;;;;;;;3.00;1.00;;;;;10.62;80.69;100658.44;4975229;28;45963;-73
2023/01/14 09:17:19;;;;;;;;;1.50;1.00;;;;;10.77;80.71;100621.78;4972216;28;45773;-70
2023/01/14 09:19:55;;;;;;;;;2.00;0.67;;;;;10.86;80.68;100626.09;4973581;28;45632;-72
2023/01/14 09:22:24;;;;;;;;;0.50;0.00;;;;;10.85;80.35;100603.41;5031159;28;45663;-72
2023/01/14 09:24:50;;;;;;;;;3.00;0.00;;;;;10.96;80.57;100633.09;4979921;28;45425;-72
2023/01/14 09:27:16;;;;;;;;;4.00;1.50;;;;;10.97;80.98;100629.59;4955733;28;45427;-72
2023/01/14 09:29:45;;;;;;;;;1.75;1.75;;;;;10.68;81.33;100589.44;4972472;28;45612;-71
2023/01/14 09:32:16;;;;;;;;;1.00;0.00;;;;;10.77;81.58;100598.19;4972281;28;45445;-72
2023/01/14 09:34:47;;;;;;;;;1.33;0.33;;;;;10.38;81.19;100531.00;4972406;28;45454;-73
2023/01/14 09:37:14;;;;;;;;;1.00;0.00;;;;;10.56;81.45;100554.56;4972610;28;45657;-72
2023/01/14 09:39:40;;;;;;;;;1.00;1.00;;;;;10.93;82.49;100626.97;4971061;28;45714;-72
2023/01/14 09:42:12;;;;;;;;;2.00;0.75;;;;;10.52;83.09;100551.94;4971605;28;45474;-72
2023/01/14 09:44:41;;;;;;;;;2.50;1.00;;;;;10.93;82.49;100612.13;4972347;28;45864;-71
2023/01/14 09:47:14;;;;;;;;;2.25;1.00;;;;;10.74;82.52;100599.94;4954382;28;45462;-73
2023/01/14 09:49:44;;;;;;;;;0.00;0.00;;;;;10.75;82.90;100580.72;4972452;28;45772;-74
2023/01/14 09:52:31;;;;;;;;;2.33;1.00;;;;;10.94;82.46;100619.13;4971510;28;46310;-72
2023/01/14 09:55:21;;;;;;;;;2.00;1.75;;;;;10.97;82.30;100610.38;4974264;28;45493;-74
2023/01/14 09:57:57;;;;;;;;;1.50;1.50;;;;;10.26;82.02;100502.16;4971771;28;45454;-74
2023/01/14 10:00:58;;;;;;;;;2.00;2.00;;;;;10.43;82.11;100525.75;4972191;28;45793;-75
2023/01/14 10:03:37;;;;;;;;;3.50;2.00;;;;;10.97;82.26;100597.28;4963038;28;45938;-73
2023/01/14 10:06:15;;;;;;;;;1.67;1.00;;;;;11.09;81.71;100614.75;4976278;28;45561;-73
2023/01/14 10:08:49;;;;;;;;;4.00;3.00;;;;;11.03;81.99;100598.16;4976224;28;45620;-74
2023/01/14 10:11:16;;;;;;;;;5.00;2.25;;;;;11.01;81.79;100594.66;4975932;28;45481;-74
2023/01/14 10:13:58;;;;;;;;;3.25;1.00;;;;;10.93;82.12;100559.72;4975703;28;45639;-72
2023/01/14 10:16:42;;;;;;;;;1.00;1.00;;;;;11.16;81.86;100585.00;4976078;28;45997;-72
2023/01/14 10:19:19;;;;;;;;;3.67;0.67;;;;;11.18;81.45;100580.63;4955569;28;45489;-72
2023/01/14 10:21:50;;;;;;;;;1.00;1.00;;;;;11.18;81.77;100588.50;5001671;28;45936;-74
2023/01/14 10:24:18;;;;;;;;;1.00;1.00;;;;;11.11;81.55;100564.06;4981014;28;46876;-75
2023/01/14 10:26:47;;;;;;;;;1.00;1.00;;;;;11.22;81.91;100582.34;4971914;28;45660;-74
2023/01/14 10:29:18;;;;;;;;;1.00;1.00;;;;;11.04;81.88;100523.88;4972104;28;45359;-75
2023/01/14 10:31:53;;;;;;;;;2.00;1.00;;;;;11.30;81.32;100559.63;4958594;28;45518;-73
2023/01/14 10:34:31;;;;;;;;;0.33;0.33;;;;;11.19;81.33;100536.06;4971078;28;46328;-73
2023/01/14 10:36:57;;;;;;;;;2.50;2.00;;;;;11.30;81.67;100564.88;4971177;28;45800;-72
2023/01/14 10:39:24;;;;;;;;;2.00;2.00;;;;;11.29;81.93;100557.00;4971126;28;45927;-73
2023/01/14 10:41:50;;;;;;;;;3.00;1.00;;;;;11.15;82.34;100523.84;4971079;28;45628;-72
2023/01/14 10:44:28;;;;;;;;;1.00;1.00;;;;;11.28;82.31;100550.88;5054526;27;46889;-73
2023/01/14 10:47:06;;;;;;;;;1.00;1.00;;;;;11.30;82.22;100543.03;4975021;28;45381;-72
2023/01/14 10:49:41;;;;;;;;;1.00;1.00;;;;;11.22;82.51;100530.81;4973500;28;45917;-71
2023/01/14 10:52:25;;;;;;;;;1.00;1.00;;;;;11.26;82.43;100523.78;4970772;28;46090;-72
2023/01/14 10:55:15;;;;;;;;;1.00;1.00;;;;;11.19;82.22;100501.97;4970607;28;45531;-71
2023/01/14 10:57:58;;;;;;;;;3.33;1.00;;;;;11.30;81.94;100504.56;4974026;28;45517;-72
2023/01/14 11:00:42;;;;;;;;;1.00;1.00;;;;;11.41;82.07;100521.13;4970955;28;45541;-72
2023/01/14 11:03:22;;;;;;;;;2.33;1.33;;;;;11.43;81.93;100521.97;4972795;28;46091;-73
2023/01/14 11:05:55;;;;;;;;;3.67;1.00;;;;;11.33;82.25;100496.66;4975055;28;46478;-72
2023/01/14 11:08:30;;;;;;;;;1.00;1.00;;;;;11.35;82.14;100483.56;4975349;28;45437;-72
2023/01/14 11:11:03;;;;;;;;;2.00;2.00;;;;;11.40;82.48;100514.13;5059052;27;45452;-73
2023/01/14 11:13:32;;;;;;;;;3.00;3.00;;;;;10.87;82.14;100399.94;4954694;28;45624;-72
2023/01/14 11:15:59;;;;;;;;;3.00;3.00;;;;;11.44;82.61;100499.25;4970900;28;46568;-72
2023/01/14 11:18:33;;;;;;;;;3.33;2.00;;;;;11.27;82.84;100462.63;4970733;28;45473;-72
2023/01/14 11:21:16;;;;;;;;;3.67;3.00;;;;;11.16;82.76;100423.34;4953287;28;45720;-73
2023/01/14 11:23:45;;;;;;;;;2.00;2.00;;;;;11.48;82.11;100472.09;4961583;28;45394;-73
2023/01/14 11:26:43;;;;;;;;;3.33;2.00;;;;;11.37;82.84;100445.97;4970620;28;45503;-72
2023/01/14 11:29:18;;;;;;;;;2.33;1.33;;;;;11.42;82.60;100451.19;4973935;28;45421;-72
2023/01/14 11:31:47;;;;;;;;;2.00;2.00;;;;;11.53;82.70;100448.47;4961707;28;45471;-73
2023/01/14 11:34:35;;;;;;;;;3.00;1.33;;;;;11.48;82.84;100435.38;4975245;28;45762;-72
2023/01/14 11:37:34;;;;;;;;;2.33;2.00;;;;;11.49;82.37;100426.66;4970322;28;46146;-73
2023/01/14 11:40:01;;;;;;;;;3.00;2.33;;;;;11.44;82.82;100415.34;4969951;28;45438;-72
2023/01/14 11:42:33;;;;;;;;;7.50;2.50;;;;;11.48;82.94;100395.19;4972848;28;45647;-73
2023/01/14 11:45:00;;;;;;;;;2.00;1.00;;;;;11.16;82.70;100349.97;4974691;28;45514;-72
2023/01/14 11:47:27;;;;;;;;;2.00;2.00;;;;;11.45;82.79;100396.94;4969038;28;47282;-72
2023/01/14 11:50:19;;;;;;;;;3.00;2.00;;;;;11.41;83.37;100389.09;4970183;28;45452;-74
2023/01/14 11:53:16;;;;;;;;;2.00;2.00;;;;;11.53;82.88;100390.78;4969447;28;45780;-72
2023/01/14 11:55:44;;;;;;;;;2.67;1.00;;;;;11.21;83.33;100328.97;4970615;28;45486;-72
2023/01/14 11:58:20;;;;;;;;;4.00;3.00;;;;;11.41;82.73;100352.41;4952602;28;46816;-71
2023/01/14 12:01:17;;;;;;;;;4.00;3.00;;;;;11.57;83.12;100367.13;4954482;28;46010;-71
2023/01/14 12:03:58;;;;;;;;;2.00;2.00;;;;;11.55;82.92;100349.66;4972486;28;45458;-71
2023/01/14 12:06:30;;;;;;;;;4.00;2.33;;;;;11.47;82.55;100334.00;4973357;28;45730;-73
2023/01/14 12:09:01;;;;;;;;;7.00;3.67;;;;;11.52;82.62;100320.84;4977244;28;45429;-71
2023/01/14 12:12:02;;;;;;;;;3.00;1.00;;;;;11.71;82.63;100338.16;4977496;28;45501;-72
2023/01/14 12:17:34;;;;;;;;;2.00;2.00;;;;;11.71;82.65;100317.19;4973891;28;45707;-72